Turks and Caicos Islands Weather

[source: ADDS]
METAR
MBPV 010400Z 0106/0206 06010KT 9999 FEW020 BECMG 0112/0114 09020KT MBGT 010400Z 0106/0206 06010KT 9999 FEW020 BECMG 0112/0114 09020KT TAF
MBPV 010400Z 0106/0206 06010KT 9999 FEW020 BECMG 0112/0114 09020KT =
MBGT 010400Z 0106/0206 06010KT 9999 FEW020 BECMG 0112/0114 09020KT =
SR / SS: 10:40 / 22:35 UTC (MBPV 2016-10-01)
E-mail Print PDF
Weather